Time;durP1;ratioP1;P1;durP2;ratioP2;P2;SDS_P1;SDS_P2;PMS_P1;PMS_P2;Temp;Humidity;BMP_temperature;BMP_pressure;BME280_temperature;BME280_humidity;BME280_pressure;Samples;Min_cycle;Max_cycle;Signal;HPM_P1;HPM_P2
2021/11/02 00:00:32;;;;;;;9.90;3.05;;;;;;;11.75;68.76;97639.06;5132734;28;20187;-52
2021/11/02 00:03:00;;;;;;;8.52;2.72;;;;;;;11.79;67.85;97637.56;5132671;28;20026;-52
2021/11/02 00:05:27;;;;;;;5.20;2.70;;;;;;;11.81;68.39;97629.44;5132641;28;20031;-52
2021/11/02 00:07:53;;;;;;;5.65;3.03;;;;;;;11.89;68.16;97629.13;5132423;28;20058;-52
2021/11/02 00:10:19;;;;;;;5.53;2.78;;;;;;;11.99;68.34;97620.59;5132551;28;20035;-52
2021/11/02 00:12:44;;;;;;;16.10;7.07;;;;;;;11.96;68.95;97626.34;5132552;28;20107;-52
2021/11/02 00:15:11;;;;;;;8.77;2.50;;;;;;;11.95;69.35;97624.72;5132474;28;20027;-52
2021/11/02 00:17:39;;;;;;;6.63;2.97;;;;;;;11.89;69.07;97623.03;5132527;28;20019;-52
2021/11/02 00:20:08;;;;;;;4.72;1.92;;;;;;;11.88;68.79;97619.59;5132392;28;20058;-52
2021/11/02 00:22:35;;;;;;;6.53;2.13;;;;;;;11.89;67.62;97617.78;5132510;28;20034;-52
2021/11/02 00:25:06;;;;;;;5.00;1.98;;;;;;;11.86;67.06;97605.88;5133030;28;20027;-52
2021/11/02 00:27:35;;;;;;;9.80;4.00;;;;;;;11.79;67.67;97607.84;5132534;28;20031;-52
2021/11/02 00:30:03;;;;;;;10.27;2.38;;;;;;;11.82;67.33;97601.34;5132416;28;20027;-51
2021/11/02 00:32:29;;;;;;;6.40;3.97;;;;;;;11.86;67.91;97608.50;5113911;28;20023;-52
2021/11/02 00:34:57;;;;;;;7.30;2.47;;;;;;;11.91;68.25;97598.13;5132332;28;20526;-52
2021/11/02 00:37:23;;;;;;;5.85;1.98;;;;;;;12.01;67.73;97599.34;5132294;28;20137;-52
2021/11/02 00:39:48;;;;;;;10.52;3.78;;;;;;;12.12;67.67;97590.59;5132250;28;20110;-51
2021/11/02 00:42:14;;;;;;;6.78;2.03;;;;;;;12.30;67.26;97593.00;5132245;28;20019;-52
2021/11/02 00:44:44;;;;;;;3.90;2.53;;;;;;;12.42;67.23;97590.31;5113817;28;20031;-52
2021/11/02 00:47:13;;;;;;;5.63;2.33;;;;;;;12.45;66.55;97586.38;5134279;27;20079;-52
2021/11/02 00:49:39;;;;;;;3.28;1.63;;;;;;;12.48;66.06;97586.72;5136107;27;20047;-52
2021/11/02 00:52:05;;;;;;;5.18;2.00;;;;;;;12.45;66.11;97589.81;5136009;27;20497;-52
2021/11/02 00:54:30;;;;;;;7.15;1.80;;;;;;;12.43;65.71;97588.47;5135999;27;20056;-52
2021/11/02 00:56:56;;;;;;;9.25;2.00;;;;;;;12.42;65.84;97582.41;5135792;27;20389;-52
2021/11/02 00:59:22;;;;;;;9.65;2.10;;;;;;;12.47;65.72;97584.31;5135784;27;20500;-52
2021/11/02 01:01:48;;;;;;;5.95;1.90;;;;;;;12.44;65.69;97580.34;5136074;27;20030;-52
2021/11/02 01:04:13;;;;;;;4.70;1.58;;;;;;;12.44;65.05;97576.91;5135705;27;20621;-52
2021/11/02 01:06:39;;;;;;;6.03;2.95;;;;;;;12.39;63.97;97581.06;5135510;27;20047;-52
2021/11/02 01:09:07;;;;;;;4.43;1.23;;;;;;;12.31;63.88;97564.84;5135914;27;20019;-52
2021/11/02 01:11:33;;;;;;;8.05;2.08;;;;;;;12.20;65.04;97574.44;5135623;27;20023;-53
2021/11/02 01:14:00;;;;;;;5.10;1.25;;;;;;;11.99;65.86;97560.94;5117161;27;20029;-53
2021/11/02 01:16:25;;;;;;;4.22;1.30;;;;;;;11.83;66.91;97571.38;5135841;27;20506;-52
2021/11/02 01:18:52;;;;;;;4.05;1.52;;;;;;;11.62;67.73;97565.75;5116945;27;20122;-52
2021/11/02 01:21:19;;;;;;;9.63;1.70;;;;;;;11.47;68.35;97563.66;5117053;27;20056;-52
2021/11/02 01:23:45;;;;;;;4.03;1.30;;;;;;;11.32;69.22;97555.47;5135465;27;20053;-52
2021/11/02 01:26:11;;;;;;;5.45;1.10;;;;;;;11.18;69.83;97565.41;5135363;27;20019;-53
2021/11/02 01:28:36;;;;;;;4.70;3.05;;;;;;;11.06;69.86;97562.03;5117038;27;20027;-52
2021/11/02 01:31:02;;;;;;;6.82;1.50;;;;;;;10.97;70.69;97565.00;5135195;27;20054;-52
2021/11/02 01:33:28;;;;;;;5.32;1.00;;;;;;;10.96;70.61;97563.38;5135511;27;20019;-52
2021/11/02 01:35:54;;;;;;;8.35;0.88;;;;;;;10.93;70.45;97565.69;5135210;27;20090;-53
2021/11/02 01:38:23;;;;;;;4.70;1.15;;;;;;;10.89;71.03;97564.56;5135367;27;20023;-52
2021/11/02 01:40:53;;;;;;;3.45;1.17;;;;;;;10.91;71.44;97570.38;5135112;27;20015;-52
2021/11/02 01:43:19;;;;;;;4.50;1.30;;;;;;;10.91;71.30;97565.91;5135116;27;20019;-52
2021/11/02 01:45:46;;;;;;;5.20;1.50;;;;;;;10.86;71.58;97560.53;5116489;27;20556;-53
2021/11/02 01:48:32;;;;;;;5.35;1.23;;;;;;;10.78;72.15;97564.34;5116552;27;20058;-52
2021/11/02 01:50:59;;;;;;;;;;;;;;;10.76;71.73;97561.13;5116683;27;20079;-52
2021/11/02 01:53:25;;;;;;;4.70;1.33;;;;;;;10.76;72.36;97566.38;5134800;27;19907;-52
2021/11/02 01:55:50;;;;;;;4.30;0.90;;;;;;;10.74;72.04;97565.81;5099425;27;20022;-52
2021/11/02 01:58:16;;;;;;;5.32;1.10;;;;;;;10.74;72.60;97567.63;5133905;27;20065;-52
2021/11/02 02:00:51;;;;;;;5.72;1.45;;;;;;;10.72;73.21;97578.34;5135148;27;20054;-51
2021/11/02 02:03:34;;;;;;;5.80;1.10;;;;;;;10.75;73.20;97569.25;5116204;27;20139;-52
2021/11/02 02:06:23;;;;;;;2.40;1.05;;;;;;;10.63;73.10;97566.63;5134800;27;20552;-51
2021/11/02 02:09:25;;;;;;;3.97;1.08;;;;;;;10.49;74.41;97568.66;5093816;27;20416;-51
2021/11/02 02:12:05;;;;;;;7.75;1.23;;;;;;;10.45;75.06;97564.91;5116058;27;20031;-51
2021/11/02 02:14:46;;;;;;;4.63;1.40;;;;;;;10.39;75.22;97568.44;5116071;27;20150;-51
2021/11/02 02:17:19;;;;;;;4.45;1.25;;;;;;;10.34;76.10;97571.72;5134417;27;20030;-51
2021/11/02 02:19:55;;;;;;;7.07;2.20;;;;;;;10.33;76.71;97567.50;5115753;27;20035;-51
2021/11/02 02:22:52;;;;;;;2.53;1.10;;;;;;;10.34;76.26;97566.50;5115823;27;20027;-51
2021/11/02 02:25:31;;;;;;;;;;;;;;;10.30;76.91;97552.22;5116294;27;20031;-50
2021/11/02 02:28:23;;;;;;;4.25;1.48;;;;;;;10.27;76.83;97557.88;5134225;27;19907;-51
2021/11/02 02:30:54;;;;;;;8.82;1.85;;;;;;;10.26;76.89;97551.06;5134100;27;20025;-51
2021/11/02 02:33:26;;;;;;;4.85;1.50;;;;;;;10.28;76.98;97543.75;5134099;27;20042;-50
2021/11/02 02:35:53;;;;;;;6.05;1.30;;;;;;;10.33;77.26;97543.09;5134005;27;20027;-51
2021/11/02 02:38:22;;;;;;;5.20;1.25;;;;;;;10.37;76.07;97541.63;5133853;27;20448;-51
2021/11/02 02:40:50;;;;;;;3.70;1.25;;;;;;;10.40;76.02;97546.41;5133842;27;20103;-51
2021/11/02 02:43:17;;;;;;;4.30;1.40;;;;;;;10.37;75.76;97552.91;5133866;27;20030;-51
2021/11/02 02:45:44;;;;;;;2.30;1.10;;;;;;;10.36;76.36;97558.38;5133775;27;20025;-51
2021/11/02 02:48:14;;;;;;;4.22;1.42;;;;;;;10.33;76.58;97558.84;5133795;27;20023;-51
2021/11/02 02:50:41;;;;;;;3.70;1.33;;;;;;;10.33;77.03;97561.47;5115835;27;20114;-50
2021/11/02 02:53:08;;;;;;;6.00;1.55;;;;;;;10.31;77.10;97564.31;5133676;27;20016;-50
2021/11/02 02:55:34;;;;;;;7.68;1.85;;;;;;;10.31;77.56;97553.81;5133601;27;20015;-51
2021/11/02 02:58:01;;;;;;;6.28;1.45;;;;;;;10.28;77.79;97554.25;5133559;27;20035;-51
2021/11/02 03:00:27;;;;;;;1.85;1.02;;;;;;;10.24;78.22;97547.88;5133484;27;20385;-51
2021/11/02 03:02:56;;;;;;;4.95;1.33;;;;;;;10.19;77.74;97545.91;5114944;27;20023;-51
2021/11/02 03:05:24;;;;;;;4.35;1.40;;;;;;;10.13;78.00;97544.19;5133424;27;20079;-50
2021/11/02 03:07:54;;;;;;;2.53;1.35;;;;;;;10.08;78.04;97548.50;5133181;27;20050;-51
2021/11/02 03:10:21;;;;;;;3.83;1.17;;;;;;;10.04;78.10;97548.16;5133598;27;20042;-50
2021/11/02 03:12:50;;;;;;;4.88;2.85;;;;;;;10.00;78.33;97534.69;5133315;27;20012;-50
2021/11/02 03:51:41;;;;;;;5.10;3.45;;;;;;;10.78;74.79;97561.72;5133177;27;20042;-52
2021/11/02 04:24:43;;;;;;;2.05;0.77;;;;;;;11.27;67.74;97574.53;5033355;28;20067;-52
2021/11/02 04:27:21;;;;;;;4.35;0.90;;;;;;;11.28;68.24;97577.97;5033176;28;20052;-52
2021/11/02 04:44:23;;;;;;;2.22;0.70;;;;;;;11.53;67.25;97594.25;5136291;27;20629;-51
2021/11/02 05:08:48;;;;;;;2.53;0.65;;;;;;;11.63;65.44;97613.84;5135617;27;20049;-51
2021/11/02 05:48:18;;;;;;;2.47;0.85;;;;;;;11.51;64.06;97635.72;5031958;28;20033;-52
2021/11/02 05:56:02;;;;;;;6.40;1.10;;;;;;;11.72;64.40;97615.09;5031531;28;20112;-53
2021/11/02 06:06:18;;;;;;;2.97;1.27;;;;;;;11.92;63.31;97635.72;5031332;28;20045;-53
2021/11/02 06:29:04;;;;;;;1.88;0.80;;;;;;;12.11;62.49;97652.94;5134243;27;20038;-52
2021/11/02 06:31:33;;;;;;;7.05;1.20;;;;;;;12.11;62.35;97650.28;5134104;27;20027;-52
2021/11/02 06:36:54;;;;;;;4.65;1.13;;;;;;;12.04;62.85;97656.72;5134265;27;20066;-51
2021/11/02 07:18:05;;;;;;;3.75;1.38;;;;;;;12.36;62.02;97689.41;5133317;27;20528;-52
2021/11/02 07:20:58;;;;;;;3.05;0.73;;;;;;;12.53;61.84;97701.78;5133180;27;20015;-52
2021/11/02 07:23:45;;;;;;;2.58;0.77;;;;;;;12.63;60.99;97698.53;5132494;27;20039;-52
2021/11/02 08:47:30;;;;;;;0.80;0.30;;;;;;;20.47;38.24;97777.00;5132341;28;20027;-49
2021/11/02 08:49:56;;;;;;;1.77;0.70;;;;;;;20.52;38.14;97773.44;5132347;28;20488;-49
2021/11/02 08:52:22;;;;;;;2.22;0.70;;;;;;;21.19;38.00;97785.81;5113851;28;20114;-50
2021/11/02 08:54:50;;;;;;;48.97;6.95;;;;;;;21.34;36.53;97781.03;5096813;28;20034;-50
2021/11/02 08:57:17;;;;;;;14.35;2.13;;;;;;;20.76;36.33;97784.06;5132186;28;20024;-50
2021/11/02 08:59:45;;;;;;;26.65;3.80;;;;;;;20.68;36.87;97782.06;5132111;28;20015;-49
2021/11/02 09:02:12;;;;;;;17.45;3.17;;;;;;;20.38;37.44;97783.25;5132084;28;20027;-50
2021/11/02 09:04:45;;;;;;;15.80;2.03;;;;;;;20.34;37.26;97788.34;5132158;28;20075;-50
2021/11/02 09:07:22;;;;;;;6.38;0.93;;;;;;;20.82;37.25;97796.25;5132008;27;20530;-50
2021/11/02 09:09:50;;;;;;;4.80;0.77;;;;;;;21.11;35.91;97784.63;5135886;27;20080;-50
2021/11/02 09:12:17;;;;;;;3.17;0.60;;;;;;;21.73;35.08;97787.88;5117232;27;20033;-50
2021/11/02 09:14:45;;;;;;;3.83;0.93;;;;;;;22.49;33.94;97795.47;5135633;27;20106;-50
2021/11/02 09:17:12;;;;;;;1.95;0.65;;;;;;;23.39;32.78;97785.97;5135542;27;20018;-50
2021/11/02 09:19:39;;;;;;;4.88;0.55;;;;;;;24.11;30.87;97785.69;5135530;27;20068;-51
2021/11/02 09:22:06;;;;;;;4.72;0.75;;;;;;;24.70;29.18;97771.91;5135491;27;20023;-50
2021/11/02 09:24:34;;;;;;;4.60;0.57;;;;;;;24.22;29.04;97788.06;5117027;27;20027;-50
2021/11/02 09:27:02;;;;;;;1.38;0.40;;;;;;;23.47;30.14;97783.34;5135426;27;20023;-51
2021/11/02 09:29:28;;;;;;;6.80;0.82;;;;;;;22.67;30.24;97782.28;5135395;27;20023;-49
2021/11/02 09:31:58;;;;;;;2.67;0.63;;;;;;;22.58;30.52;97786.75;5135353;27;20515;-49
2021/11/02 09:34:24;;;;;;;2.80;0.40;;;;;;;23.77;29.97;97786.34;5116808;27;20031;-51
2021/11/02 09:37:15;;;;;;;2.35;0.50;;;;;;;24.05;29.71;97780.78;5116690;27;20071;-50
2021/11/02 09:39:46;;;;;;;2.58;0.75;;;;;;;22.94;30.39;97792.91;5116673;27;20060;-51
2021/11/02 09:42:48;;;;;;;11.88;2.28;;;;;;;21.78;32.80;97796.88;5135149;27;20019;-50
2021/11/02 09:46:05;;;;;;;6.28;1.13;;;;;;;20.23;36.57;97793.00;5113925;27;20411;-50
2021/11/02 09:48:33;;;;;;;;;;;;;;;19.35;39.08;97802.94;5035301;28;20033;-50
2021/11/02 09:51:32;;;;;;;4.35;0.85;;;;;;;19.00;39.61;97796.03;5034779;28;19908;-50
2021/11/02 09:54:19;;;;;;;3.72;0.98;;;;;;;19.64;40.05;97781.66;5051444;28;20033;-50
2021/11/02 09:57:04;;;;;;;8.63;1.35;;;;;;;20.75;37.30;97780.63;5050548;28;20576;-50
2021/11/02 10:00:04;;;;;;;2.38;0.82;;;;;;;22.14;36.20;97783.63;5051273;28;20068;-50
2021/11/02 10:03:10;;;;;;;6.27;1.40;;;;;;;23.64;33.83;97782.66;5051004;28;20049;-50
2021/11/02 10:05:53;;;;;;;1.33;0.65;;;;;;;24.04;31.25;97771.94;5051145;28;20279;-51
2021/11/02 10:08:33;;;;;;;1.45;0.70;;;;;;;24.25;31.31;97779.44;5051136;28;20111;-50
2021/11/02 10:11:30;;;;;;;3.83;0.80;;;;;;;24.32;30.49;97769.00;5051257;28;20105;-50
2021/11/02 10:14:13;;;;;;;4.22;1.08;;;;;;;24.26;30.25;97764.91;5051202;28;20032;-50
2021/11/02 10:16:56;;;;;;;3.35;0.55;;;;;;;24.50;29.51;97772.53;5051096;28;20052;-50
2021/11/02 10:19:59;;;;;;;3.58;0.65;;;;;;;24.77;29.77;97770.66;5050363;28;20036;-50
2021/11/02 10:22:46;;;;;;;6.30;1.00;;;;;;;24.83;28.66;97761.34;5051003;28;20025;-50
2021/11/02 10:25:40;;;;;;;0.68;0.50;;;;;;;24.68;28.69;97758.03;5115835;27;20035;-50
2021/11/02 10:28:43;;;;;;;2.30;0.50;;;;;;;24.71;28.22;97764.69;5109988;27;20058;-50
2021/11/02 10:31:21;;;;;;;6.68;1.20;;;;;;;23.73;28.49;97764.72;5115764;27;20027;-49
2021/11/02 10:33:54;;;;;;;2.33;0.70;;;;;;;23.29;28.76;97752.22;5134165;27;20019;-50
2021/11/02 10:36:52;;;;;;;1.65;0.50;;;;;;;22.74;29.81;97769.28;5134160;27;20038;-50
2021/11/02 10:39:39;;;;;;;5.38;1.35;;;;;;;22.47;28.83;97757.56;5115806;27;20072;-50
2021/11/02 10:42:37;;;;;;;2.95;0.70;;;;;;;22.29;28.77;97748.56;5134556;27;20019;-50
2021/11/02 10:45:10;;;;;;;3.88;1.30;;;;;;;22.42;29.11;97748.88;5133829;27;20034;-50
2021/11/02 10:48:17;;;;;;;4.15;0.40;;;;;;;22.82;28.41;97744.50;5133909;27;20088;-50
2021/11/02 10:50:47;;;;;;;3.05;1.25;;;;;;;23.45;28.55;97739.22;5103714;27;20039;-50
2021/11/02 10:53:36;;;;;;;2.10;0.63;;;;;;;24.44;27.24;97731.63;5133713;27;20100;-50
2021/11/02 10:56:29;;;;;;;2.65;0.68;;;;;;;25.04;26.17;97726.59;5133708;27;20492;-49
2021/11/02 10:58:59;;;;;;;6.20;2.58;;;;;;;24.44;25.93;97738.91;5107437;27;20070;-50
2021/11/02 11:01:28;;;;;;;2.50;0.50;;;;;;;24.10;25.96;97725.13;5115134;27;20034;-51
2021/11/02 11:03:59;;;;;;;3.72;0.73;;;;;;;24.31;26.13;97722.63;5133501;27;20476;-51
2021/11/02 11:06:27;;;;;;;1.95;0.90;;;;;;;24.53;25.25;97737.06;5133249;27;20027;-51
2021/11/02 11:08:56;;;;;;;4.15;1.00;;;;;;;24.52;25.11;97728.19;5115076;27;20460;-50
2021/11/02 11:11:28;;;;;;;3.22;0.70;;;;;;;24.56;25.29;97732.94;5114945;27;20117;-50
2021/11/02 11:13:59;;;;;;;3.60;0.90;;;;;;;23.93;26.20;97738.50;5133405;27;20019;-50
2021/11/02 11:16:27;;;;;;;2.65;0.73;;;;;;;24.09;25.27;97728.91;5133338;27;20038;-50
2021/11/02 11:19:14;;;;;;;1.55;0.68;;;;;;;24.32;26.34;97728.78;5133160;27;20079;-50
2021/11/02 11:21:43;;;;;;;1.50;0.40;;;;;;;24.71;26.13;97724.44;5133296;27;20427;-50
2021/11/02 11:24:54;;;;;;;4.15;0.85;;;;;;;24.17;26.76;97730.03;5133205;27;20027;-51
2021/11/02 11:27:22;;;;;;;3.80;0.68;;;;;;;23.20;27.18;97733.44;5114498;27;20396;-50
2021/11/02 11:29:49;;;;;;;1.90;0.45;;;;;;;22.52;27.90;97733.38;5114809;27;20034;-50
2021/11/02 11:32:17;;;;;;;3.28;0.98;;;;;;;21.96;29.26;97720.41;5132148;27;20049;-50
2021/11/02 11:34:46;;;;;;;5.07;1.67;;;;;;;21.49;30.17;97723.97;5133022;27;20061;-50
2021/11/02 11:37:14;;;;;;;10.68;4.55;;;;;;;21.69;30.59;97720.13;5114810;27;20027;-50
2021/11/02 11:39:42;;;;;;;2.58;0.60;;;;;;;22.13;30.02;97723.25;5132903;27;20022;-50
2021/11/02 11:42:12;;;;;;;11.93;2.35;;;;;;;23.00;29.92;97718.66;5132924;27;20019;-50
2021/11/02 11:44:43;;;;;;;2.75;0.90;;;;;;;23.68;27.71;97710.47;5132986;27;20028;-50
2021/11/02 11:47:12;;;;;;;9.45;1.55;;;;;;;23.72;27.49;97717.59;5114429;28;20037;-50
2021/11/02 11:49:40;;;;;;;4.00;1.70;;;;;;;23.80;28.15;97712.59;5114400;28;20028;-50
2021/11/02 11:52:09;;;;;;;4.50;2.35;;;;;;;24.45;27.10;97714.44;5132763;27;20023;-50
2021/11/02 11:54:49;;;;;;;1.85;0.85;;;;;;;24.58;26.11;97704.69;5132757;28;20023;-50
2021/11/02 11:57:36;;;;;;;3.08;1.10;;;;;;;24.27;26.50;97702.13;5132756;28;20110;-50
2021/11/02 12:00:16;;;;;;;3.38;1.20;;;;;;;24.10;26.52;97703.66;5132680;28;20449;-51
2021/11/02 12:03:08;;;;;;;4.25;1.35;;;;;;;23.30;26.56;97681.50;5132770;28;20500;-50
2021/11/02 12:05:42;;;;;;;1.73;0.60;;;;;;;22.66;26.75;97698.56;5114535;28;20114;-50
2021/11/02 12:08:15;;;;;;;3.08;1.25;;;;;;;21.53;28.05;97703.59;5114102;28;20047;-50
2021/11/02 12:10:43;;;;;;;3.35;1.40;;;;;;;20.44;29.86;97699.47;5132672;28;20485;-48
2021/11/02 12:13:11;;;;;;;9.82;7.30;;;;;;;19.74;31.17;97699.06;5114231;28;20027;-50
2021/11/02 12:15:42;;;;;;;4.07;1.27;;;;;;;19.22;32.41;97718.47;5114124;28;20031;-50
2021/11/02 12:18:09;;;;;;;1.83;0.68;;;;;;;18.86;32.81;97711.56;5132655;28;20038;-50
2021/11/02 12:20:38;;;;;;;3.00;0.82;;;;;;;18.64;33.53;97708.53;5132502;28;20023;-50
2021/11/02 12:23:20;;;;;;;2.08;0.90;;;;;;;18.43;33.87;97715.81;5114103;28;20396;-50
2021/11/02 12:25:54;;;;;;;3.25;0.47;;;;;;;18.29;34.75;97713.78;5114329;28;20408;-49
2021/11/02 12:28:45;;;;;;;1.75;0.57;;;;;;;18.02;35.31;97711.53;5132530;28;20015;-50
2021/11/02 12:31:19;;;;;;;2.92;0.63;;;;;;;17.28;37.74;97710.38;5132446;28;20042;-50
2021/11/02 12:33:52;;;;;;;6.45;0.90;;;;;;;16.67;40.78;97701.38;5132458;28;20388;-49
2021/11/02 12:36:25;;;;;;;5.07;1.35;;;;;;;16.30;40.37;97705.03;5132409;28;20058;-50
2021/11/02 12:39:04;;;;;;;2.30;0.60;;;;;;;16.22;40.70;97696.78;5113927;28;20412;-51
2021/11/02 12:41:29;;;;;;;2.78;0.60;;;;;;;16.31;41.57;97695.22;5132396;28;20038;-51
2021/11/02 12:44:10;;;;;;;3.25;0.50;;;;;;;16.42;42.41;97696.84;5117198;27;20483;-50
2021/11/02 12:46:44;;;;;;;4.47;1.52;;;;;;;16.51;43.75;97687.31;5136498;27;20038;-49
2021/11/02 12:49:16;;;;;;;3.70;0.52;;;;;;;16.76;42.21;97680.44;5136285;27;20035;-50
2021/11/02 12:51:48;;;;;;;3.60;0.88;;;;;;;17.06;40.91;97678.88;5117712;27;20037;-50
2021/11/02 12:54:18;;;;;;;2.22;1.00;;;;;;;17.52;40.65;97676.91;5117620;27;20407;-50
2021/11/02 12:56:53;;;;;;;2.40;1.15;;;;;;;18.02;39.71;97670.91;5136133;27;20038;-50
2021/11/02 12:59:21;;;;;;;6.82;2.92;;;;;;;18.42;38.53;97666.44;5135958;27;20027;-50
2021/11/02 13:01:49;;;;;;;2.42;0.70;;;;;;;19.22;36.96;97649.31;5135929;27;20023;-51
2021/11/02 13:04:17;;;;;;;3.30;0.98;;;;;;;19.87;35.86;97646.97;5117453;27;20027;-50
2021/11/02 13:06:50;;;;;;;1.48;0.70;;;;;;;20.27;35.10;97644.81;5135302;27;20108;-50
2021/11/02 13:09:19;;;;;;;1.98;0.63;;;;;;;20.37;33.40;97641.22;5117340;27;20015;-49
2021/11/02 13:11:47;;;;;;;4.32;1.00;;;;;;;20.10;33.15;97642.69;5135765;27;20019;-50
2021/11/02 13:14:15;;;;;;;2.53;0.88;;;;;;;19.62;33.76;97633.94;5135642;27;20072;-50
2021/11/02 13:17:01;;;;;;;1.45;0.50;;;;;;;19.35;34.46;97617.47;5117180;27;20023;-50
2021/11/02 13:19:39;;;;;;;3.70;1.55;;;;;;;19.20;35.10;97603.59;5117092;27;20020;-50
2021/11/02 13:22:16;;;;;;;12.68;8.13;;;;;;;19.18;35.85;97592.44;5117100;27;20030;-50
2021/11/02 13:25:01;;;;;;;1.85;1.27;;;;;;;19.30;34.89;97590.94;5117110;27;20434;-50
2021/11/02 13:27:36;;;;;;;4.93;0.80;;;;;;;18.96;36.12;97593.72;5135516;27;20023;-50
2021/11/02 13:30:24;;;;;;;2.40;0.63;;;;;;;18.64;35.32;97591.59;5135471;27;20034;-50
2021/11/02 13:33:04;;;;;;;6.15;3.85;;;;;;;18.29;36.26;97590.81;5116907;27;20046;-50
2021/11/02 13:35:59;;;;;;;3.13;1.08;;;;;;;18.27;36.83;97585.78;5135331;27;20164;-50
2021/11/02 13:38:43;;;;;;;1.30;0.95;;;;;;;18.08;36.21;97583.00;5133355;27;20685;-50
2021/11/02 13:41:12;;;;;;;8.65;1.83;;;;;;;17.78;37.20;97576.75;5135324;27;20400;-50
2021/11/02 13:43:40;;;;;;;2.30;0.88;;;;;;;17.69;37.78;97575.78;5135206;27;20015;-49
2021/11/02 13:46:09;;;;;;;2.50;0.55;;;;;;;17.62;37.53;97580.56;5116552;27;20015;-50
2021/11/02 13:48:35;;;;;;;1.75;0.70;;;;;;;17.31;37.46;97562.16;5135041;27;20422;-51
2021/11/02 13:51:05;;;;;;;2.15;1.05;;;;;;;17.04;38.38;97569.66;5135048;27;20144;-50
2021/11/02 13:53:34;;;;;;;1.17;0.50;;;;;;;16.90;38.55;97562.28;5134624;27;20053;-50
2021/11/02 13:56:07;;;;;;;2.13;0.82;;;;;;;16.77;38.87;97562.81;5134275;27;20023;-50
2021/11/02 13:58:34;;;;;;;1.60;0.55;;;;;;;16.75;39.20;97562.28;5116412;27;20023;-50
2021/11/02 14:01:00;;;;;;;4.00;1.00;;;;;;;16.76;38.47;97554.06;5116299;27;20392;-50
2021/11/02 14:03:35;;;;;;;1.80;0.75;;;;;;;16.81;38.27;97561.25;5134814;27;20505;-50
2021/11/02 14:06:03;;;;;;;2.33;0.80;;;;;;;16.83;38.58;97567.06;5134757;27;20400;-50
2021/11/02 14:08:29;;;;;;;2.33;0.88;;;;;;;16.80;38.38;97558.81;5112604;28;20148;-51
2021/11/02 14:10:57;;;;;;;2.50;0.77;;;;;;;16.69;38.55;97558.84;5113999;28;20030;-50
2021/11/02 14:13:50;;;;;;;4.97;1.30;;;;;;;16.66;38.98;97551.44;5095836;28;20032;-50
2021/11/02 14:16:28;;;;;;;1.05;0.73;;;;;;;16.75;38.56;97552.47;5109747;28;20094;-50
2021/11/02 14:18:54;;;;;;;1.20;0.52;;;;;;;16.77;38.56;97546.91;5113866;28;20552;-50
2021/11/02 14:21:45;;;;;;;8.25;7.20;;;;;;;16.78;39.24;97551.94;5113906;28;20102;-50
2021/11/02 14:24:11;;;;;;;3.15;0.70;;;;;;;16.94;39.07;97552.75;5112382;28;20471;-50
2021/11/02 14:26:47;;;;;;;5.03;2.47;;;;;;;17.03;39.50;97546.88;5113681;28;20094;-50
2021/11/02 14:29:13;;;;;;;3.10;1.17;;;;;;;17.05;39.45;97542.88;5113624;28;20519;-50
2021/11/02 14:31:40;;;;;;;26.75;18.02;;;;;;;17.16;39.77;97543.63;5112260;28;20024;-50
2021/11/02 14:34:29;;;;;;;5.45;4.13;;;;;;;17.16;39.78;97549.75;5113658;28;20061;-50
2021/11/02 14:37:13;;;;;;;2.33;0.60;;;;;;;17.24;39.84;97537.78;5105895;28;20508;-50
2021/11/02 14:39:57;;;;;;;1.42;0.73;;;;;;;17.24;39.18;97529.81;5113440;28;20031;-50
2021/11/02 14:42:54;;;;;;;1.30;0.80;;;;;;;17.06;38.70;97522.47;5113349;28;20433;-50
2021/11/02 14:45:49;;;;;;;4.07;1.10;;;;;;;16.94;38.41;97528.06;5113442;28;20024;-50
2021/11/02 14:48:44;;;;;;;2.73;0.87;;;;;;;16.91;38.69;97523.31;5111973;28;20035;-50
2021/11/02 14:51:13;;;;;;;2.03;0.73;;;;;;;16.81;38.32;97515.38;5113337;28;20020;-50
2021/11/02 14:53:42;;;;;;;1.85;0.63;;;;;;;16.73;38.98;97519.38;5113262;28;20028;-50
2021/11/02 14:56:11;;;;;;;3.30;0.70;;;;;;;16.58;39.53;97510.41;5113194;28;20024;-50
2021/11/02 14:58:43;;;;;;;4.47;0.95;;;;;;;16.35;40.09;97503.78;5111600;28;20472;-51
2021/11/02 15:01:17;;;;;;;2.80;1.02;;;;;;;16.16;40.49;97503.56;5113143;28;20035;-50
2021/11/02 15:03:54;;;;;;;5.47;0.73;;;;;;;15.92;41.37;97494.56;5112975;28;20107;-52
2021/11/02 15:06:26;;;;;;;2.05;0.70;;;;;;;15.78;41.90;97492.44;5111628;28;20031;-52
2021/11/02 15:08:53;;;;;;;2.63;0.60;;;;;;;15.70;42.28;97498.22;5133534;27;20024;-53
2021/11/02 15:11:19;;;;;;;973.53;671.00;;;;;;;15.64;43.04;97493.97;5133422;27;20023;-52
2021/11/02 15:14:03;;;;;;;276.85;189.98;;;;;;;15.57;43.50;97491.59;5133370;27;20027;-52
2021/11/02 15:16:30;;;;;;;9.57;5.90;;;;;;;15.59;43.45;97491.31;5133326;27;20027;-52
2021/11/02 15:19:02;;;;;;;13.48;7.38;;;;;;;15.49;43.76;97500.03;5133224;27;20023;-52
2021/11/02 15:21:38;;;;;;;7.97;4.38;;;;;;;15.38;43.97;97496.56;5133229;27;20027;-53
2021/11/02 15:24:24;;;;;;;8.20;3.42;;;;;;;15.24;44.38;97486.75;5133289;27;20106;-52
2021/11/02 15:27:07;;;;;;;3.53;2.05;;;;;;;15.13;45.10;97483.25;5133193;27;20548;-52
2021/11/02 15:29:45;;;;;;;8.20;3.72;;;;;;;14.96;45.56;97494.81;5133165;27;20504;-52
2021/11/02 15:32:16;;;;;;;15.52;6.70;;;;;;;14.89;46.06;97486.34;5133152;27;20052;-52
2021/11/02 15:34:59;;;;;;;5.10;2.40;;;;;;;14.96;46.01;97486.91;5132989;27;20027;-53
2021/11/02 15:37:26;;;;;;;4.22;1.67;;;;;;;14.93;45.86;97487.44;5133036;27;20030;-53
2021/11/02 15:40:08;;;;;;;2.22;0.90;;;;;;;14.90;46.13;97482.66;5132904;27;20572;-53
2021/11/02 15:42:38;;;;;;;2.10;0.90;;;;;;;14.86;46.23;97471.00;5132967;27;20042;-52
2021/11/02 15:45:07;;;;;;;8.77;4.97;;;;;;;14.77;46.38;97472.56;5132883;27;20015;-53
2021/11/02 15:47:39;;;;;;;4.63;2.28;;;;;;;14.68;46.80;97463.53;5132898;27;20031;-52
2021/11/02 15:50:11;;;;;;;3.72;1.40;;;;;;;14.57;47.09;97457.41;5114522;27;20038;-53
2021/11/02 15:52:39;;;;;;;9.25;3.85;;;;;;;14.51;47.62;97451.28;5132871;27;20035;-52
2021/11/02 15:55:17;;;;;;;7.22;1.63;;;;;;;14.56;47.71;97447.88;5132744;27;20047;-53
2021/11/02 15:57:53;;;;;;;4.82;1.30;;;;;;;14.57;48.23;97444.22;5114305;28;20411;-52
2021/11/02 16:00:22;;;;;;;4.25;1.55;;;;;;;14.68;48.04;97437.13;5132724;28;20023;-52
2021/11/02 16:02:48;;;;;;;1.98;0.88;;;;;;;14.76;47.94;97432.13;5114253;28;20560;-52
2021/11/02 16:05:18;;;;;;;5.57;2.40;;;;;;;14.80;48.08;97434.28;5132672;28;20011;-52
2021/11/02 16:07:44;;;;;;;3.00;0.70;;;;;;;14.76;48.16;97428.72;5132335;28;20043;-52
2021/11/02 16:10:12;;;;;;;3.03;1.02;;;;;;;14.80;48.44;97431.63;5114172;28;20396;-52
2021/11/02 16:12:40;;;;;;;3.08;1.10;;;;;;;14.70;48.62;97433.16;5132655;28;20026;-52
2021/11/02 16:15:06;;;;;;;2.40;0.98;;;;;;;14.58;48.93;97417.53;5132630;28;20034;-53
2021/11/02 16:17:47;;;;;;;2.42;0.80;;;;;;;14.65;49.09;97432.34;5133417;27;20094;-52
2021/11/02 16:20:21;;;;;;;5.40;1.08;;;;;;;14.58;49.58;97432.59;5118290;27;20035;-52
2021/11/02 16:22:51;;;;;;;1.42;0.68;;;;;;;14.54;49.49;97434.91;5118567;27;20560;-53
2021/11/02 16:25:17;;;;;;;2.47;0.80;;;;;;;14.47;49.36;97431.72;5118144;27;20462;-52
2021/11/02 16:27:55;;;;;;;4.93;1.13;;;;;;;14.39;49.70;97427.72;5136660;27;20106;-52
2021/11/02 16:30:23;;;;;;;2.42;1.10;;;;;;;14.33;49.90;97423.47;5136563;27;20027;-53
2021/11/02 16:32:52;;;;;;;1.65;0.80;;;;;;;14.23;50.23;97415.47;5118139;27;20396;-52
2021/11/02 16:35:40;;;;;;;2.65;0.63;;;;;;;14.11;50.70;97422.81;5136425;27;20558;-52
2021/11/02 16:38:37;;;;;;;2.25;0.70;;;;;;;13.95;51.29;97412.13;5136494;27;20068;-52
2021/11/02 16:41:07;;;;;;;7.05;1.33;;;;;;;13.80;51.59;97406.75;5136382;27;20080;-52
2021/11/02 16:43:46;;;;;;;2.85;1.02;;;;;;;13.72;52.38;97405.38;5117923;27;20035;-52
2021/11/02 16:46:39;;;;;;;6.18;1.73;;;;;;;13.68;52.61;97403.50;5117828;27;20031;-52
2021/11/02 16:49:27;;;;;;;6.45;1.10;;;;;;;13.62;52.95;97405.28;5117792;27;20027;-52
2021/11/02 16:52:04;;;;;;;4.05;1.15;;;;;;;13.61;53.38;97403.72;5117822;27;20117;-52
2021/11/02 16:54:38;;;;;;;3.85;1.30;;;;;;;13.54;53.48;97414.47;5136189;27;20023;-53
2021/11/02 16:57:33;;;;;;;4.40;1.83;;;;;;;13.57;53.46;97413.16;5117674;27;20110;-52
2021/11/02 17:00:11;;;;;;;3.90;1.10;;;;;;;13.56;53.54;97404.47;5118044;27;20066;-52
2021/11/02 17:02:44;;;;;;;3.00;1.25;;;;;;;13.58;53.74;97401.56;5135922;27;20067;-53